createdAt,value
2019-05-26T00:00:30.033Z,0.00
2019-05-26T00:01:30.075Z,0.00
2019-05-26T00:02:29.981Z,0.00
2019-05-26T00:03:30.110Z,0.00
2019-05-26T00:04:29.924Z,0.00
2019-05-26T00:05:30.011Z,0.00
2019-05-26T00:06:29.870Z,0.00
2019-05-26T00:07:30.837Z,0.00
2019-05-26T00:08:29.900Z,0.00
2019-05-26T00:09:29.790Z,0.00
2019-05-26T00:10:29.839Z,0.00
2019-05-26T00:11:29.816Z,0.00
2019-05-26T00:12:29.710Z,0.00
2019-05-26T00:13:29.683Z,0.00
2019-05-26T00:14:29.658Z,0.00
2019-05-26T00:15:29.646Z,0.00
2019-05-26T00:16:29.598Z,0.00
2019-05-26T00:17:29.573Z,0.00
2019-05-26T00:18:33.092Z,0.00
2019-05-26T00:19:29.576Z,0.00
2019-05-26T00:20:29.495Z,0.00
2019-05-26T00:21:29.558Z,0.00
2019-05-26T00:22:29.441Z,0.00
2019-05-26T00:23:29.496Z,0.00
2019-05-26T00:24:29.389Z,0.00
2019-05-26T00:25:29.406Z,0.00
2019-05-26T00:26:29.331Z,0.00
2019-05-26T00:27:29.305Z,0.00
2019-05-26T00:28:29.327Z,0.00
2019-05-26T00:29:29.246Z,0.00
2019-05-26T00:30:29.233Z,0.00
2019-05-26T00:31:29.200Z,0.00
2019-05-26T00:32:29.171Z,0.00
2019-05-26T00:33:29.156Z,0.00
2019-05-26T00:34:29.145Z,0.00
2019-05-26T00:35:29.086Z,0.00
2019-05-26T00:36:29.056Z,0.00
2019-05-26T00:37:29.064Z,0.00
2019-05-26T00:38:29.014Z,0.00
2019-05-26T00:39:29.078Z,0.00
2019-05-26T00:40:28.950Z,0.00
2019-05-26T00:41:28.990Z,0.00
2019-05-26T00:42:28.900Z,0.00
2019-05-26T00:43:28.897Z,0.00
2019-05-26T00:44:28.855Z,0.00
2019-05-26T00:45:28.918Z,0.00
2019-05-26T00:46:28.784Z,0.00
2019-05-26T00:47:28.828Z,0.00
2019-05-26T00:48:28.816Z,0.00
2019-05-26T00:49:28.737Z,0.00
2019-05-26T00:50:28.686Z,0.00
2019-05-26T00:51:28.656Z,0.00
2019-05-26T00:52:28.620Z,0.00
2019-05-26T00:53:28.613Z,0.00
2019-05-26T00:54:28.574Z,0.00
2019-05-26T00:55:29.652Z,0.00
2019-05-26T00:56:28.525Z,0.00
2019-05-26T00:57:28.497Z,0.00
2019-05-26T00:58:28.460Z,0.00
2019-05-26T00:59:28.436Z,0.00
2019-05-26T01:00:28.461Z,0.00
2019-05-26T01:01:28.379Z,0.00
2019-05-26T01:02:28.373Z,0.00
2019-05-26T01:03:28.328Z,0.00
2019-05-26T01:04:28.384Z,0.00
2019-05-26T01:05:28.272Z,0.00
2019-05-26T01:06:28.311Z,0.00
2019-05-26T01:07:28.219Z,0.00
2019-05-26T01:08:28.192Z,0.00
2019-05-26T01:09:28.155Z,0.00
2019-05-26T01:10:28.290Z,0.00
2019-05-26T01:11:28.108Z,0.00
2019-05-26T01:12:28.127Z,0.00
2019-05-26T01:13:28.055Z,0.00
2019-05-26T01:14:28.047Z,0.00
2019-05-26T01:15:27.995Z,0.00
2019-05-26T01:16:28.104Z,0.00
2019-05-26T01:17:27.942Z,0.00
2019-05-26T01:18:27.970Z,0.00
2019-05-26T01:19:27.889Z,0.00
2019-05-26T01:20:28.906Z,0.00
2019-05-26T01:21:27.835Z,0.00
2019-05-26T01:22:27.893Z,0.00
2019-05-26T01:23:27.782Z,0.00
2019-05-26T01:24:27.806Z,0.00
2019-05-26T01:25:27.734Z,0.00
2019-05-26T01:26:27.718Z,0.00
2019-05-26T01:27:27.666Z,0.00
2019-05-26T01:28:27.732Z,0.00
2019-05-26T01:29:27.616Z,0.00
2019-05-26T01:30:27.642Z,0.00
2019-05-26T01:31:27.559Z,0.00
2019-05-26T01:32:27.548Z,0.00
2019-05-26T01:33:27.507Z,0.00
2019-05-26T01:34:27.574Z,0.00
2019-05-26T01:35:27.454Z,0.00
2019-05-26T01:36:27.482Z,0.00
2019-05-26T01:37:27.404Z,0.00
2019-05-26T01:38:27.390Z,0.00
2019-05-26T01:39:27.345Z,0.00
2019-05-26T01:40:27.404Z,0.00
2019-05-26T01:41:27.286Z,0.00
2019-05-26T01:42:27.314Z,0.00
2019-05-26T01:43:27.235Z,0.00
2019-05-26T01:44:27.229Z,0.00
2019-05-26T01:45:27.175Z,0.00
2019-05-26T01:46:27.240Z,0.00
2019-05-26T01:47:27.123Z,0.00
2019-05-26T01:48:27.167Z,0.00
2019-05-26T01:49:27.085Z,0.00
2019-05-26T01:50:27.065Z,0.00
2019-05-26T01:51:27.012Z,0.00
2019-05-26T01:52:27.099Z,0.00
2019-05-26T01:53:26.956Z,0.00
2019-05-26T01:54:27.007Z,0.00
2019-05-26T01:55:26.908Z,0.00
2019-05-26T01:56:26.904Z,0.00
2019-05-26T01:57:26.860Z,0.00
2019-05-26T01:58:26.826Z,0.00
2019-05-26T01:59:26.821Z,0.00
2019-05-26T02:00:26.768Z,0.00
2019-05-26T02:01:26.840Z,0.00
2019-05-26T02:02:26.712Z,0.00
2019-05-26T02:03:26.744Z,0.00
2019-05-26T02:04:26.658Z,0.00
2019-05-26T02:05:26.652Z,0.00
2019-05-26T02:06:26.611Z,0.00
2019-05-26T02:07:26.579Z,0.00
2019-05-26T02:08:38.975Z,0.00
2019-05-26T02:09:26.523Z,0.00
2019-05-26T02:10:26.587Z,0.00
2019-05-26T02:11:26.471Z,0.00
2019-05-26T02:12:26.492Z,0.00
2019-05-26T02:13:26.414Z,0.00
2019-05-26T02:14:26.403Z,0.00
2019-05-26T02:15:26.357Z,0.00
2019-05-26T02:16:26.417Z,0.00
2019-05-26T02:17:26.298Z,0.00
2019-05-26T02:18:26.289Z,0.00
2019-05-26T02:19:26.246Z,0.00
2019-05-26T02:20:26.247Z,0.00
2019-05-26T02:21:26.193Z,0.00
2019-05-26T02:22:26.251Z,0.00
2019-05-26T02:23:26.132Z,0.00
2019-05-26T02:24:26.182Z,0.00
2019-05-26T02:25:26.092Z,0.00
2019-05-26T02:26:27.079Z,0.00
2019-05-26T02:27:26.023Z,0.00
2019-05-26T02:28:26.001Z,0.00
2019-05-26T02:29:26.989Z,0.00
2019-05-26T02:30:25.945Z,0.00
2019-05-26T02:31:25.988Z,0.00
2019-05-26T02:32:25.924Z,0.00
2019-05-26T02:33:25.902Z,0.00
2019-05-26T02:34:25.827Z,0.00
2019-05-26T02:35:25.907Z,0.00
2019-05-26T02:36:25.785Z,0.00
2019-05-26T02:37:25.830Z,0.00
2019-05-26T02:38:26.597Z,0.00
2019-05-26T02:39:25.736Z,0.00
2019-05-26T02:40:25.670Z,0.00
2019-05-26T02:41:25.756Z,0.00
2019-05-26T02:42:25.703Z,0.00
2019-05-26T02:43:25.658Z,0.00
2019-05-26T02:44:25.571Z,0.00
2019-05-26T02:45:25.578Z,0.00
2019-05-26T02:46:25.502Z,0.00
2019-05-26T02:47:25.589Z,0.00
2019-05-26T02:48:25.445Z,0.00
2019-05-26T02:49:25.512Z,0.00
2019-05-26T02:50:25.388Z,4.00
2019-05-26T02:51:25.414Z,4.00
2019-05-26T02:52:25.337Z,4.00
2019-05-26T02:53:25.425Z,0.00
2019-05-26T02:54:25.282Z,4.00
2019-05-26T02:55:26.363Z,4.00
2019-05-26T02:56:25.232Z,4.00
2019-05-26T02:57:25.245Z,4.00
2019-05-26T02:58:25.180Z,4.00
2019-05-26T02:59:25.290Z,8.00
2019-05-26T03:00:25.114Z,8.00
2019-05-26T03:01:25.166Z,4.00
2019-05-26T03:02:25.064Z,8.00
2019-05-26T03:03:27.204Z,8.00
2019-05-26T03:04:25.004Z,12.00
2019-05-26T03:05:26.017Z,12.00
2019-05-26T03:06:24.955Z,12.00
2019-05-26T03:07:25.006Z,12.00
2019-05-26T03:08:24.897Z,16.00
2019-05-26T03:09:24.977Z,16.00
2019-05-26T03:10:24.838Z,20.00
2019-05-26T03:11:24.881Z,20.00
2019-05-26T03:12:24.782Z,24.00
2019-05-26T03:13:24.856Z,28.00
2019-05-26T03:14:24.734Z,28.00
2019-05-26T03:15:24.799Z,32.00
2019-05-26T03:16:24.668Z,32.00
2019-05-26T03:17:24.643Z,40.00
2019-05-26T03:18:24.679Z,40.00
2019-05-26T03:19:24.882Z,44.00
2019-05-26T03:20:24.591Z,48.00
2019-05-26T03:21:24.533Z,52.00
2019-05-26T03:22:24.614Z,56.00
2019-05-26T03:23:24.487Z,60.00
2019-05-26T03:24:24.521Z,60.00
2019-05-26T03:25:24.722Z,68.00
2019-05-26T03:26:24.522Z,72.00
2019-05-26T03:27:24.583Z,80.00
2019-05-26T03:28:24.744Z,88.00
2019-05-26T03:29:24.615Z,96.00
2019-05-26T03:30:24.628Z,108.00
2019-05-26T03:31:24.358Z,120.00
2019-05-26T03:32:24.319Z,132.00
2019-05-26T03:33:24.208Z,144.00
2019-05-26T03:34:24.173Z,164.00
2019-05-26T03:35:24.150Z,180.00
2019-05-26T03:36:24.186Z,196.00
2019-05-26T03:37:24.088Z,216.00
2019-05-26T03:38:24.097Z,232.00
2019-05-26T03:39:42.278Z,256.00
2019-05-26T03:40:24.199Z,284.00
2019-05-26T03:41:23.977Z,308.00
2019-05-26T03:42:24.021Z,336.00
2019-05-26T03:43:23.923Z,360.00
2019-05-26T03:44:23.955Z,380.00
2019-05-26T03:45:23.868Z,396.00
2019-05-26T03:46:23.860Z,404.00
2019-05-26T03:47:23.809Z,412.00
2019-05-26T03:48:23.874Z,416.00
2019-05-26T03:49:23.754Z,416.00
2019-05-26T03:50:23.784Z,416.00
2019-05-26T03:51:23.702Z,420.00
2019-05-26T03:52:23.707Z,424.00
2019-05-26T03:53:23.644Z,432.00
2019-05-26T03:54:23.712Z,440.00
2019-05-26T03:55:23.585Z,452.00
2019-05-26T03:56:23.619Z,464.00
2019-05-26T03:57:23.521Z,472.00
2019-05-26T03:58:23.614Z,484.00
2019-05-26T03:59:23.481Z,492.00
2019-05-26T04:00:23.521Z,496.00
2019-05-26T04:01:23.421Z,500.00
2019-05-26T04:02:23.435Z,500.00
2019-05-26T04:03:23.362Z,500.00
2019-05-26T04:04:23.440Z,500.00
2019-05-26T04:05:23.307Z,504.00
2019-05-26T04:06:23.362Z,508.00
2019-05-26T04:07:23.254Z,512.00
2019-05-26T04:08:23.264Z,516.00
2019-05-26T04:09:23.194Z,520.00
2019-05-26T04:10:23.275Z,532.00
2019-05-26T04:11:23.145Z,556.00
2019-05-26T04:12:23.116Z,580.00
2019-05-26T04:13:23.092Z,592.00
2019-05-26T04:14:23.079Z,600.00
2019-05-26T04:15:23.041Z,612.00
2019-05-26T04:16:23.085Z,624.00
2019-05-26T04:17:23.085Z,636.00
2019-05-26T04:18:22.945Z,656.00
2019-05-26T04:19:24.028Z,680.00
2019-05-26T04:20:22.902Z,708.00
2019-05-26T04:21:22.916Z,724.00
2019-05-26T04:22:22.843Z,744.00
2019-05-26T04:23:23.843Z,772.00
2019-05-26T04:24:22.787Z,796.00
2019-05-26T04:25:22.847Z,816.00
2019-05-26T04:26:22.741Z,828.00
2019-05-26T04:27:22.760Z,840.00
2019-05-26T04:28:22.677Z,848.00
2019-05-26T04:29:23.685Z,844.00
2019-05-26T04:30:22.610Z,844.00
2019-05-26T04:31:22.673Z,840.00
2019-05-26T04:32:22.556Z,848.00
2019-05-26T04:33:22.576Z,852.00
2019-05-26T04:34:22.511Z,864.00
2019-05-26T04:35:22.495Z,880.00
2019-05-26T04:36:22.448Z,900.00
2019-05-26T04:37:22.515Z,920.00
2019-05-26T04:38:22.400Z,948.00
2019-05-26T04:39:22.360Z,976.00
2019-05-26T04:40:27.274Z,1024.00
2019-05-26T04:41:22.332Z,1080.00
2019-05-26T04:42:22.276Z,1148.00
2019-05-26T04:43:22.261Z,1220.00
2019-05-26T04:44:22.349Z,1304.00
2019-05-26T04:45:22.194Z,1384.00
2019-05-26T04:46:22.259Z,1448.00
2019-05-26T04:47:22.137Z,1508.00
2019-05-26T04:48:22.176Z,1548.00
2019-05-26T04:49:22.089Z,1576.00
2019-05-26T04:50:22.084Z,1588.00
2019-05-26T04:51:22.035Z,1592.00
2019-05-26T04:52:22.097Z,1596.00
2019-05-26T04:53:21.977Z,1600.00
2019-05-26T04:54:22.048Z,1624.00
2019-05-26T04:55:21.915Z,1656.00
2019-05-26T04:56:21.931Z,1684.00
2019-05-26T04:57:21.870Z,1712.00
2019-05-26T04:58:21.937Z,1760.00
2019-05-26T04:59:21.797Z,1800.00
2019-05-26T05:00:21.860Z,1848.00
2019-05-26T05:01:21.757Z,1896.00
2019-05-26T05:02:21.760Z,1956.00
2019-05-26T05:03:21.711Z,2032.00
2019-05-26T05:04:21.771Z,2104.00
2019-05-26T05:05:21.635Z,2164.00
2019-05-26T05:06:21.689Z,2216.00
2019-05-26T05:07:21.598Z,2260.00
2019-05-26T05:08:21.558Z,2304.00
2019-05-26T05:09:21.540Z,2348.00
2019-05-26T05:10:21.557Z,2392.00
2019-05-26T05:11:21.515Z,2432.00
2019-05-26T05:12:21.448Z,2472.00
2019-05-26T05:13:24.798Z,2496.00
2019-05-26T05:14:21.394Z,2528.00
2019-05-26T05:15:21.361Z,2556.00
2019-05-26T05:16:21.334Z,2588.00
2019-05-26T05:17:21.372Z,2632.00
2019-05-26T05:18:21.283Z,2684.00
2019-05-26T05:19:22.277Z,2740.00
2019-05-26T05:20:21.225Z,2800.00
2019-05-26T05:21:21.357Z,2868.00
2019-05-26T05:22:21.170Z,2916.00
2019-05-26T05:23:21.183Z,2996.00
2019-05-26T05:24:21.114Z,3120.00
2019-05-26T05:25:21.211Z,3240.00
2019-05-26T05:26:21.055Z,3304.00
2019-05-26T05:27:21.122Z,3292.00
2019-05-26T05:28:21.003Z,3244.00
2019-05-26T05:29:21.032Z,3240.00
2019-05-26T05:30:20.955Z,3232.00
2019-05-26T05:31:20.925Z,3144.00
2019-05-26T05:32:20.891Z,3036.00
2019-05-26T05:33:20.953Z,2976.00
2019-05-26T05:34:20.837Z,2984.00
2019-05-26T05:35:20.857Z,2948.00
2019-05-26T05:36:20.783Z,2848.00
2019-05-26T05:37:20.767Z,2844.00
2019-05-26T05:38:20.721Z,2808.00
2019-05-26T05:39:20.779Z,2644.00
2019-05-26T05:40:20.671Z,2496.00
2019-05-26T05:41:20.706Z,2448.00
2019-05-26T05:42:20.610Z,2444.00
2019-05-26T05:43:20.596Z,2468.00
2019-05-26T05:44:20.586Z,2504.00
2019-05-26T05:45:20.537Z,2536.00
2019-05-26T05:46:20.535Z,2580.00
2019-05-26T05:47:20.481Z,2632.00
2019-05-26T05:48:20.542Z,2688.00
2019-05-26T05:49:20.423Z,2752.00
2019-05-26T05:50:20.462Z,2808.00
2019-05-26T05:51:20.365Z,2860.00
2019-05-26T05:52:20.339Z,2908.00
2019-05-26T05:53:22.424Z,2960.00
2019-05-26T05:54:20.283Z,3008.00
2019-05-26T05:55:20.381Z,3064.00
2019-05-26T05:56:20.230Z,3116.00
2019-05-26T05:57:21.301Z,3172.00
2019-05-26T05:58:20.167Z,3228.00
2019-05-26T05:59:20.145Z,3292.00
2019-05-26T06:00:20.195Z,3340.00
2019-05-26T06:01:20.104Z,3384.00
2019-05-26T06:02:20.105Z,3424.00
2019-05-26T06:03:20.029Z,3452.00
2019-05-26T06:04:22.084Z,3480.00
2019-05-26T06:05:19.996Z,3544.00
2019-05-26T06:06:19.950Z,3652.00
2019-05-26T06:07:19.939Z,3684.00
2019-05-26T06:08:20.149Z,3660.00
2019-05-26T06:09:19.949Z,3572.00
2019-05-26T06:10:19.840Z,3512.00
2019-05-26T06:11:19.857Z,3488.00
2019-05-26T06:12:19.786Z,3500.00
2019-05-26T06:13:19.770Z,3496.00
2019-05-26T06:14:20.893Z,3476.00
2019-05-26T06:15:19.701Z,3452.00
2019-05-26T06:16:19.682Z,3448.00
2019-05-26T06:17:19.702Z,3452.00
2019-05-26T06:18:19.622Z,3468.00
2019-05-26T06:19:19.590Z,3460.00
2019-05-26T06:20:19.586Z,3460.00
2019-05-26T06:21:19.535Z,3460.00
2019-05-26T06:22:19.516Z,3472.00
2019-05-26T06:23:19.531Z,3472.00
2019-05-26T06:24:19.455Z,3488.00
2019-05-26T06:25:19.425Z,3500.00
2019-05-26T06:26:19.403Z,3516.00
2019-05-26T06:27:19.458Z,3528.00
2019-05-26T06:28:19.342Z,3536.00
2019-05-26T06:29:21.420Z,3556.00
2019-05-26T06:30:19.293Z,3584.00
2019-05-26T06:31:19.278Z,3604.00
2019-05-26T06:32:19.230Z,3640.00
2019-05-26T06:33:19.293Z,3656.00
2019-05-26T06:34:19.175Z,3708.00
2019-05-26T06:35:19.147Z,3728.00
2019-05-26T06:36:19.226Z,3760.00
2019-05-26T06:37:19.096Z,3800.00
2019-05-26T06:38:19.067Z,3808.00
2019-05-26T06:39:19.038Z,3820.00
2019-05-26T06:40:19.037Z,3812.00
2019-05-26T06:41:32.294Z,3808.00
2019-05-26T06:42:19.043Z,3828.00
2019-05-26T06:43:18.928Z,3832.00
2019-05-26T06:44:18.898Z,3832.00
2019-05-26T06:45:18.879Z,3840.00
2019-05-26T06:46:18.837Z,3820.00
2019-05-26T06:47:18.877Z,3824.00
2019-05-26T06:48:18.788Z,3848.00
2019-05-26T06:49:18.794Z,3864.00
2019-05-26T06:50:18.748Z,3888.00
2019-05-26T06:51:19.725Z,3896.00
2019-05-26T06:52:18.676Z,3908.00
2019-05-26T06:53:18.715Z,3928.00
2019-05-26T06:54:18.627Z,3940.00
2019-05-26T06:55:18.612Z,3952.00
2019-05-26T06:56:18.578Z,3988.00
2019-05-26T06:57:18.551Z,4028.00
2019-05-26T06:58:18.516Z,4000.00
2019-05-26T06:59:18.493Z,3892.00
2019-05-26T07:00:18.474Z,3784.00
2019-05-26T07:01:19.478Z,3692.00
2019-05-26T07:02:18.417Z,3584.00
2019-05-26T07:03:18.379Z,3428.00
2019-05-26T07:04:18.352Z,3300.00
2019-05-26T07:05:18.761Z,3096.00
2019-05-26T07:06:18.298Z,2908.00
2019-05-26T07:07:19.351Z,2804.00
2019-05-26T07:08:18.246Z,2716.00
2019-05-26T07:09:18.337Z,2484.00
2019-05-26T07:10:18.187Z,2428.00
2019-05-26T07:11:18.151Z,2292.00
2019-05-26T07:12:18.215Z,2080.00
2019-05-26T07:13:18.154Z,1988.00
2019-05-26T07:14:18.078Z,1888.00
2019-05-26T07:15:18.046Z,1908.00
2019-05-26T07:16:34.846Z,1992.00
2019-05-26T07:17:20.572Z,2152.00
2019-05-26T07:18:17.982Z,2284.00
2019-05-26T07:19:17.942Z,2256.00
2019-05-26T07:20:17.909Z,2232.00
2019-05-26T07:21:17.904Z,2212.00
2019-05-26T07:22:17.858Z,2256.00
2019-05-26T07:23:17.920Z,2288.00
2019-05-26T07:24:17.796Z,2368.00
2019-05-26T07:25:17.923Z,2424.00
2019-05-26T07:26:17.749Z,2508.00
2019-05-26T07:27:17.746Z,2616.00
2019-05-26T07:28:17.687Z,2968.00
2019-05-26T07:29:17.762Z,3344.00
2019-05-26T07:30:17.706Z,3284.00
2019-05-26T07:31:17.721Z,3160.00
2019-05-26T07:32:17.579Z,3196.00
2019-05-26T07:33:17.575Z,3268.00
2019-05-26T07:34:17.533Z,3580.00
2019-05-26T07:35:17.598Z,4228.00
2019-05-26T07:36:17.466Z,4968.00
2019-05-26T07:37:17.442Z,5464.00
2019-05-26T07:38:17.507Z,5168.00
2019-05-26T07:39:17.613Z,5016.00
2019-05-26T07:40:17.373Z,5356.00
2019-05-26T07:41:17.429Z,6108.00
2019-05-26T07:42:17.300Z,6892.00
2019-05-26T07:43:17.347Z,7332.00
2019-05-26T07:44:17.262Z,7268.00
2019-05-26T07:45:17.219Z,6912.00
2019-05-26T07:46:17.265Z,6604.00
2019-05-26T07:47:17.169Z,6476.00
2019-05-26T07:48:17.134Z,6404.00
2019-05-26T07:49:17.112Z,6264.00
2019-05-26T07:50:17.085Z,5896.00
2019-05-26T07:51:17.098Z,5512.00
2019-05-26T07:52:17.042Z,5428.00
2019-05-26T07:53:16.999Z,5536.00
2019-05-26T07:54:25.431Z,5432.00
2019-05-26T07:55:16.944Z,5668.00
2019-05-26T07:56:16.916Z,5988.00
2019-05-26T07:57:16.996Z,6140.00
2019-05-26T07:58:16.945Z,6064.00
2019-05-26T07:59:16.838Z,6032.00
2019-05-26T08:00:16.852Z,6040.00
2019-05-26T08:01:16.779Z,6044.00
2019-05-26T08:02:16.863Z,5892.00
2019-05-26T08:03:16.723Z,5672.00
2019-05-26T08:04:16.781Z,5636.00
2019-05-26T08:05:16.669Z,5644.00
2019-05-26T08:06:16.692Z,5576.00
2019-05-26T08:07:16.648Z,5492.00
2019-05-26T08:08:16.593Z,5512.00
2019-05-26T08:09:16.611Z,5616.00
2019-05-26T08:10:16.533Z,5596.00
2019-05-26T08:11:16.504Z,5364.00
2019-05-26T08:12:25.440Z,4968.00
2019-05-26T08:13:16.453Z,4752.00
2019-05-26T08:14:17.461Z,4580.00
2019-05-26T08:15:16.388Z,4328.00
2019-05-26T08:16:16.453Z,4068.00
2019-05-26T08:17:16.338Z,3892.00
2019-05-26T08:18:16.372Z,3848.00
2019-05-26T08:19:16.282Z,3940.00
2019-05-26T08:20:17.300Z,4140.00
2019-05-26T08:21:16.231Z,4208.00
2019-05-26T08:22:16.223Z,4188.00
2019-05-26T08:23:16.201Z,4188.00
2019-05-26T08:24:16.145Z,4292.00
2019-05-26T08:25:16.222Z,4448.00
2019-05-26T08:26:16.093Z,4580.00
2019-05-26T08:27:17.143Z,4744.00
2019-05-26T08:28:16.042Z,4864.00
2019-05-26T08:29:16.032Z,4584.00
2019-05-26T08:30:15.976Z,4260.00
2019-05-26T08:31:16.054Z,4060.00
2019-05-26T08:32:15.927Z,3912.00
2019-05-26T08:33:17.129Z,3744.00
2019-05-26T08:34:15.869Z,3432.00
2019-05-26T08:35:15.880Z,3384.00
2019-05-26T08:36:15.813Z,3664.00
2019-05-26T08:37:15.801Z,3924.00
2019-05-26T08:38:15.760Z,4328.00
2019-05-26T08:39:15.794Z,4452.00
2019-05-26T08:40:15.709Z,4488.00
2019-05-26T08:41:15.707Z,4560.00
2019-05-26T08:42:26.980Z,4072.00
2019-05-26T08:43:15.621Z,3480.00
2019-05-26T08:44:15.653Z,3108.00
2019-05-26T08:45:15.569Z,2916.00
2019-05-26T08:46:15.645Z,2840.00
2019-05-26T08:47:15.516Z,2752.00
2019-05-26T08:48:15.577Z,2476.00
2019-05-26T08:49:15.459Z,2248.00
2019-05-26T08:50:15.453Z,2204.00
2019-05-26T08:51:15.404Z,2256.00
2019-05-26T08:52:15.479Z,2488.00
2019-05-26T08:53:15.352Z,2696.00
2019-05-26T08:54:15.320Z,2848.00
2019-05-26T08:55:15.406Z,2856.00
2019-05-26T08:56:15.258Z,2876.00
2019-05-26T08:57:15.302Z,2892.00
2019-05-26T08:58:15.216Z,2904.00
2019-05-26T08:59:15.184Z,3056.00
2019-05-26T09:00:15.155Z,3108.00
2019-05-26T09:01:15.132Z,3216.00
2019-05-26T09:02:15.134Z,3268.00
2019-05-26T09:03:15.074Z,3056.00
2019-05-26T09:04:15.147Z,2992.00
2019-05-26T09:05:15.029Z,2896.00
2019-05-26T09:06:14.991Z,2680.00
2019-05-26T09:07:14.965Z,2428.00
2019-05-26T09:08:14.933Z,2304.00
2019-05-26T09:09:14.909Z,2360.00
2019-05-26T09:10:14.883Z,2572.00
2019-05-26T09:11:14.868Z,2684.00
2019-05-26T09:12:14.827Z,2820.00
2019-05-26T09:13:14.800Z,3068.00
2019-05-26T09:14:15.869Z,3328.00
2019-05-26T09:15:14.748Z,3584.00
2019-05-26T09:16:14.795Z,3784.00
2019-05-26T09:17:14.709Z,4016.00
2019-05-26T09:18:14.745Z,4292.00
2019-05-26T09:19:14.659Z,4580.00
2019-05-26T09:20:14.647Z,4852.00
2019-05-26T09:21:14.584Z,5548.00
2019-05-26T09:22:14.658Z,5940.00
2019-05-26T09:23:14.525Z,6240.00
2019-05-26T09:24:14.577Z,6712.00
2019-05-26T09:25:14.479Z,7000.00
2019-05-26T09:26:14.489Z,7092.00
2019-05-26T09:27:14.423Z,6996.00
2019-05-26T09:28:14.395Z,6904.00
2019-05-26T09:29:14.361Z,6920.00
2019-05-26T09:30:14.354Z,6856.00
2019-05-26T09:31:14.420Z,6760.00
2019-05-26T09:32:14.287Z,6760.00
2019-05-26T09:33:14.332Z,6516.00
2019-05-26T09:34:14.227Z,6024.00
2019-05-26T09:35:14.205Z,5456.00
2019-05-26T09:36:14.170Z,5192.00
2019-05-26T09:37:14.151Z,5428.00
2019-05-26T09:38:14.119Z,5640.00
2019-05-26T09:39:14.097Z,5960.00
2019-05-26T09:40:14.066Z,6484.00
2019-05-26T09:41:14.040Z,6616.00
2019-05-26T09:42:14.019Z,6692.00
2019-05-26T09:43:16.571Z,6864.00
2019-05-26T09:44:13.960Z,7012.00
2019-05-26T09:45:13.950Z,7236.00
2019-05-26T09:46:13.995Z,7392.00
2019-05-26T09:47:13.873Z,7504.00
2019-05-26T09:48:13.920Z,7528.00
2019-05-26T09:49:13.845Z,7512.00
2019-05-26T09:50:13.809Z,7384.00
2019-05-26T09:51:13.767Z,7268.00
2019-05-26T09:52:13.737Z,7188.00
2019-05-26T09:53:13.738Z,7072.00
2019-05-26T09:54:13.698Z,7048.00
2019-05-26T09:55:13.662Z,7072.00
2019-05-26T09:56:13.656Z,7168.00
2019-05-26T09:57:13.606Z,7232.00
2019-05-26T09:58:14.642Z,7244.00
2019-05-26T09:59:13.558Z,7268.00
2019-05-26T10:00:16.042Z,7184.00
2019-05-26T10:01:13.495Z,7116.00
2019-05-26T10:02:13.551Z,7008.00
2019-05-26T10:03:13.477Z,6836.00
2019-05-26T10:04:13.411Z,6708.00
2019-05-26T10:05:13.382Z,6636.00
2019-05-26T10:06:13.466Z,6728.00
2019-05-26T10:07:15.856Z,6904.00
2019-05-26T10:08:13.376Z,7120.00
2019-05-26T10:09:13.383Z,7320.00
2019-05-26T10:10:13.293Z,7308.00
2019-05-26T10:11:13.290Z,7216.00
2019-05-26T10:12:13.311Z,7096.00
2019-05-26T10:13:13.174Z,6992.00
2019-05-26T10:14:13.165Z,6944.00
2019-05-26T10:15:13.290Z,6932.00
2019-05-26T10:16:13.139Z,6956.00
2019-05-26T10:17:13.156Z,7028.00
2019-05-26T10:18:13.074Z,7020.00
2019-05-26T10:19:13.012Z,6884.00
2019-05-26T10:20:12.974Z,6828.00
2019-05-26T10:21:13.701Z,6980.00
2019-05-26T10:22:12.993Z,7204.00
2019-05-26T10:23:12.894Z,7208.00
2019-05-26T10:24:13.017Z,6812.00
2019-05-26T10:25:12.918Z,6356.00
2019-05-26T10:26:12.885Z,6008.00
2019-05-26T10:27:12.794Z,5676.00
2019-05-26T10:28:12.812Z,5636.00
2019-05-26T10:29:12.781Z,5844.00
2019-05-26T10:30:14.782Z,6228.00
2019-05-26T10:31:12.761Z,6432.00
2019-05-26T10:32:12.729Z,6488.00
2019-05-26T10:33:12.625Z,6508.00
2019-05-26T10:34:13.789Z,6496.00
2019-05-26T10:35:12.728Z,6500.00
2019-05-26T10:36:12.648Z,6476.00
2019-05-26T10:37:12.532Z,6548.00
2019-05-26T10:38:12.587Z,6636.00
2019-05-26T10:39:12.476Z,6664.00
2019-05-26T10:40:13.507Z,6652.00
2019-05-26T10:41:12.413Z,6616.00
2019-05-26T10:42:13.406Z,6548.00
2019-05-26T10:43:12.358Z,6468.00
2019-05-26T10:44:12.402Z,6212.00
2019-05-26T10:45:12.310Z,5980.00
2019-05-26T10:46:12.318Z,5820.00
2019-05-26T10:47:12.283Z,5644.00
2019-05-26T10:48:20.229Z,5624.00
2019-05-26T10:49:12.266Z,5700.00
2019-05-26T10:50:12.242Z,5832.00
2019-05-26T10:51:12.145Z,6004.00
2019-05-26T10:52:12.444Z,6508.00
2019-05-26T10:53:12.188Z,7112.00
2019-05-26T10:54:12.167Z,7468.00
2019-05-26T10:55:12.041Z,7556.00
2019-05-26T10:56:12.080Z,7492.00
2019-05-26T10:57:11.985Z,7516.00
2019-05-26T10:58:14.039Z,7576.00
2019-05-26T10:59:11.928Z,7652.00
2019-05-26T11:00:12.001Z,7608.00
2019-05-26T11:01:11.982Z,7592.00
2019-05-26T11:02:13.963Z,7624.00
2019-05-26T11:03:12.086Z,7632.00
2019-05-26T11:04:11.823Z,7656.00
2019-05-26T11:05:11.769Z,7684.00
2019-05-26T11:06:12.286Z,7608.00
2019-05-26T11:07:11.724Z,7252.00
2019-05-26T11:08:11.749Z,6944.00
2019-05-26T11:09:11.680Z,6740.00
2019-05-26T11:10:11.641Z,6604.00
2019-05-26T11:11:11.667Z,6352.00
2019-05-26T11:12:11.674Z,6248.00
2019-05-26T11:13:11.573Z,6284.00
2019-05-26T11:14:11.532Z,6060.00
2019-05-26T11:15:11.632Z,5924.00
2019-05-26T11:16:11.538Z,5952.00
2019-05-26T11:17:11.685Z,5928.00
2019-05-26T11:18:11.422Z,6308.00
2019-05-26T11:19:12.448Z,6976.00
2019-05-26T11:20:11.370Z,7384.00
2019-05-26T11:21:12.509Z,7568.00
2019-05-26T11:22:11.514Z,7448.00
2019-05-26T11:23:11.292Z,7640.00
2019-05-26T11:24:11.267Z,7612.00
2019-05-26T11:25:11.352Z,7472.00
2019-05-26T11:26:11.287Z,7344.00
2019-05-26T11:27:13.600Z,6896.00
2019-05-26T11:28:11.349Z,6596.00
2019-05-26T11:29:11.264Z,6580.00
2019-05-26T11:30:11.111Z,6484.00
2019-05-26T11:31:11.152Z,6244.00
2019-05-26T11:32:11.049Z,6436.00
2019-05-26T11:33:11.068Z,6744.00
2019-05-26T11:34:11.001Z,6972.00
2019-05-26T11:35:11.168Z,6916.00
2019-05-26T11:36:10.951Z,6860.00
2019-05-26T11:37:10.920Z,6556.00
2019-05-26T11:38:10.884Z,6316.00
2019-05-26T11:39:10.869Z,6232.00
2019-05-26T11:40:10.904Z,6308.00
2019-05-26T11:41:10.805Z,6384.00
2019-05-26T11:42:13.768Z,6340.00
2019-05-26T11:43:16.806Z,6176.00
2019-05-26T11:44:17.949Z,6168.00
2019-05-26T11:45:10.733Z,6108.00
2019-05-26T11:46:10.676Z,6056.00
2019-05-26T11:47:17.201Z,6084.00
2019-05-26T11:48:10.623Z,6136.00
2019-05-26T11:49:10.804Z,6244.00
2019-05-26T11:50:11.708Z,6352.00
2019-05-26T11:51:10.589Z,6484.00
2019-05-26T11:52:10.581Z,6496.00
2019-05-26T11:53:10.492Z,6540.00
2019-05-26T11:54:10.500Z,6428.00
2019-05-26T11:55:10.434Z,6180.00
2019-05-26T11:56:10.519Z,5876.00
2019-05-26T11:57:10.415Z,5848.00
2019-05-26T11:58:12.456Z,5932.00
2019-05-26T11:59:10.333Z,5792.00
2019-05-26T12:00:11.040Z,5836.00
2019-05-26T12:01:10.312Z,6288.00
2019-05-26T12:02:11.363Z,6796.00
2019-05-26T12:03:10.247Z,6784.00
2019-05-26T12:04:19.271Z,6444.00
2019-05-26T12:05:10.166Z,6240.00
2019-05-26T12:06:10.261Z,6112.00
2019-05-26T12:07:10.212Z,6472.00
2019-05-26T12:08:10.230Z,6820.00
2019-05-26T12:09:10.073Z,7012.00
2019-05-26T12:10:13.965Z,6944.00
2019-05-26T12:11:10.011Z,6892.00
2019-05-26T12:12:11.058Z,6772.00
2019-05-26T12:13:09.963Z,6940.00
2019-05-26T12:14:09.932Z,7080.00
2019-05-26T12:15:09.923Z,6924.00
2019-05-26T12:16:09.877Z,6648.00
2019-05-26T12:17:09.868Z,6288.00
2019-05-26T12:18:09.827Z,5684.00
2019-05-26T12:19:09.845Z,5360.00
2019-05-26T12:20:09.818Z,5132.00
2019-05-26T12:21:09.745Z,5472.00
2019-05-26T12:22:09.717Z,5424.00
2019-05-26T12:23:09.697Z,5456.00
2019-05-26T12:24:09.666Z,5844.00
2019-05-26T12:25:09.686Z,6360.00
2019-05-26T12:26:09.621Z,6768.00